Kalamazoo Battle Creek International Airport
KAZO : now visible

Airfield :











YOU CAN JOIN US ON...

 
LOGIN :

Register | Disclaimer

   EN    FR    IT 

 









Legend :    VFR   Marginal VFR   IFR   Intensive IFR   Very Intensive IFR
Visi :
Ceiling :
>= 8 km
>= 3000ft
5 to 8 km
1000 to 3000 ft
1500m to 5 km
500 to 1000 ft
800 to 1500m
200 to 500 ft
< 800m
< 200 ft
Symbols :   Thunderstorms  Fog  Heavy snow  Heavy precipitations  Wind > 20 kt






- Airport Elevation : 874 ft
- IATA code : AZO


KAZO - Kalamazoo Battle Creek International

CURRENT METAR :
  • 231653Z 19010G19KT 10SM FEW032 FEW060 SCT100 23/14 A3011 RMK AO2 SLP192 T02280139

EXPIRED METARs :
  • 231638Z 18013KT 10SM FEW002 SCT055 BKN080 22/13 A3011 RMK AO2 T02170133
  • 231553Z 22011G19KT 10SM OVC037 20/12 A3011 RMK AO2 RAE1458 SLP195 P0000 T02000122
  • 231453Z 21012G19KT 10SM -RA FEW055 OVC070 19/12 A3010 RMK AO2 RAB49 SLP192 P0000 60005 T01890122 53000

TAF KAZO
Valid from the 23 at 16:00 until the 24 at 12:00 UTC


231542Z 2316/2412 21012G22KT P6SM -SHRA FEW060 OVC070
FM231900 20010G18KT P6SM VCSH OVC050
FM232100 18011KT P6SM VCSH BKN050
FM240400 18008KT P6SM SCT150 WS020/20040KT
KZAU FIR / North America



MET'MAP, your aeronautical weather chart ! - Copyright ORBIFLY December 2007 - Disclaimer

ORBIFLY MET'MAP TEAM :

Programming & Development : Alexandra Zaïnal
Concept & original design : Baudouin d'Aumeries
Assistance for programming : Marc-Olivier Méhu
Technical & hardware support : Manuel Goepfert

Contact : metmap@orbifly.com




SOURCES & CREDITS :

   NOAA       Earth
Advisory